Time;durP1;ratioP1;P1;durP2;ratioP2;P2;SDS_P1;SDS_P2;PMS_P1;PMS_P2;Temp;Humidity;BMP_temperature;BMP_pressure;BME280_temperature;BME280_humidity;BME280_pressure;Samples;Min_cycle;Max_cycle;Signal;HPM_P1;HPM_P2
2023/04/07 04:00:35;;;;;;;1.77;1.77;;;3.30;99.90;;;;;;5780800;23;20656;-73
2023/04/07 04:03:03;;;;;;;2.45;2.25;;;3.30;99.90;;;;;;4918190;29;20278;-73
2023/04/07 04:05:29;;;;;;;2.22;2.10;;;3.20;99.90;;;;;;4915670;29;20661;-73
2023/04/07 04:07:56;;;;;;;1.08;1.05;;;3.20;99.90;;;;;;4920349;29;20286;-70
2023/04/07 04:10:23;;;;;;;1.92;1.92;;;3.20;99.90;;;;;;4918537;29;20250;-71
2023/04/07 04:12:50;;;;;;;2.30;1.30;;;3.20;99.90;;;;;;4920461;29;20232;-71
2023/04/07 04:15:17;;;;;;;1.63;1.52;;;3.10;99.90;;;;;;4918445;29;20207;-72
2023/04/07 04:17:45;;;;;;;1.92;1.83;;;3.10;99.90;;;;;;4913691;29;20671;-71
2023/04/07 04:20:12;;;;;;;2.08;1.98;;;3.10;99.90;;;;;;4911276;29;20234;-72
2023/04/07 04:22:39;;;;;;;1.90;1.83;;;3.10;99.90;;;;;;4919635;29;20212;-72
2023/04/07 04:25:05;;;;;;;2.35;2.20;;;3.10;99.90;;;;;;4911189;29;20211;-71
2023/04/07 04:27:32;;;;;;;7.10;3.05;;;3.00;99.90;;;;;;4912569;29;20530;-71
2023/04/07 04:29:59;;;;;;;1.35;1.25;;;3.00;99.90;;;;;;4909462;29;20231;-71
2023/04/07 04:32:25;;;;;;;5.05;2.17;;;3.00;99.90;;;;;;4906204;29;20245;-70
2023/04/07 04:34:54;;;;;;;1.58;1.58;;;3.00;99.90;;;;;;4905757;29;20210;-69
2023/04/07 04:37:20;;;;;;;3.22;2.75;;;3.00;99.90;;;;;;4911598;29;20301;-69
2023/04/07 04:39:47;;;;;;;2.22;2.03;;;2.90;99.90;;;;;;4908507;29;20203;-69
2023/04/07 04:42:15;;;;;;;4.35;2.10;;;2.90;99.90;;;;;;4905508;29;20225;-69
2023/04/07 04:44:42;;;;;;;4.22;2.42;;;2.90;99.90;;;;;;4908626;29;20238;-69
2023/04/07 04:47:08;;;;;;;2.38;2.22;;;2.80;99.90;;;;;;4912765;29;20213;-70
2023/04/07 04:49:35;;;;;;;1.90;1.80;;;2.80;99.90;;;;;;4909787;29;20969;-70
2023/04/07 04:52:03;;;;;;;2.40;2.30;;;2.80;99.90;;;;;;4905634;29;20239;-69
2023/04/07 04:54:30;;;;;;;1.05;1.05;;;2.80;99.90;;;;;;4901966;29;20203;-68
2023/04/07 04:56:57;;;;;;;0.55;0.55;;;2.80;99.90;;;;;;4905983;29;20211;-70
2023/04/07 04:59:25;;;;;;;3.50;3.25;;;2.80;99.90;;;;;;4910957;29;20217;-70
2023/04/07 05:01:52;;;;;;;1.50;1.40;;;2.80;99.90;;;;;;4904488;29;20272;-70
2023/04/07 05:04:19;;;;;;;2.50;2.30;;;2.80;99.90;;;;;;4906518;29;20222;-70
2023/04/07 05:06:45;;;;;;;3.95;2.55;;;2.80;99.90;;;;;;4912895;29;20213;-70
2023/04/07 05:09:13;;;;;;;1.52;1.52;;;2.90;99.90;;;;;;4903573;29;20239;-68
2023/04/07 05:11:41;;;;;;;1.67;1.58;;;2.90;99.90;;;;;;4912252;29;20234;-69
2023/04/07 05:14:07;;;;;;;1.50;1.50;;;3.00;99.90;;;;;;4909265;29;20583;-70
2023/04/07 05:16:35;;;;;;;2.20;2.20;;;3.00;99.90;;;;;;4911800;29;20213;-70
2023/04/07 05:19:02;;;;;;;2.25;2.15;;;3.10;99.90;;;;;;4914531;29;20237;-70
2023/04/07 05:21:29;;;;;;;2.28;2.22;;;3.20;99.90;;;;;;4909968;29;20228;-71
2023/04/07 05:23:56;;;;;;;2.25;1.58;;;3.20;99.90;;;;;;4905176;29;20211;-70
2023/04/07 05:26:24;;;;;;;2.20;2.08;;;3.30;99.90;;;;;;4908025;29;20592;-68
2023/04/07 05:28:51;;;;;;;2.05;2.05;;;3.40;99.90;;;;;;4909282;29;20294;-72
2023/04/07 05:31:18;;;;;;;3.78;2.17;;;3.50;99.90;;;;;;4910650;29;20222;-70
2023/04/07 05:33:45;;;;;;;2.88;2.55;;;3.70;99.90;;;;;;4907947;29;20794;-69
2023/04/07 05:36:11;;;;;;;1.73;1.73;;;3.90;99.90;;;;;;4900515;29;20220;-70
2023/04/07 05:38:38;;;;;;;1.67;1.60;;;4.00;99.90;;;;;;4906361;29;20226;-71
2023/04/07 05:41:05;;;;;;;1.75;1.65;;;4.30;99.90;;;;;;4905795;29;20233;-69
2023/04/07 05:43:33;;;;;;;2.35;2.28;;;4.60;99.90;;;;;;4912140;29;20645;-71
2023/04/07 05:46:00;;;;;;;3.90;2.05;;;4.80;99.90;;;;;;4902742;29;20215;-68
2023/04/07 05:48:27;;;;;;;2.35;1.90;;;4.90;99.90;;;;;;4911269;29;20202;-71
2023/04/07 05:50:53;;;;;;;1.77;1.77;;;4.90;99.90;;;;;;4909549;29;20243;-70
2023/04/07 05:53:20;;;;;;;2.88;2.78;;;4.80;99.90;;;;;;4908491;29;20209;-70
2023/04/07 05:55:47;;;;;;;2.88;2.05;;;4.70;99.90;;;;;;4905243;29;20336;-71
2023/04/07 05:58:13;;;;;;;2.30;1.75;;;4.70;99.90;;;;;;4917591;29;20217;-70
2023/04/07 06:00:42;;;;;;;2.30;2.10;;;4.80;99.90;;;;;;4914883;29;20234;-71
2023/04/07 06:03:08;;;;;;;1.00;1.00;;;4.70;99.90;;;;;;4909423;29;20222;-70
2023/04/07 06:05:35;;;;;;;2.80;2.63;;;4.70;99.90;;;;;;4907885;29;20590;-71
2023/04/07 06:08:02;;;;;;;2.72;2.53;;;4.80;99.90;;;;;;4911658;29;20215;-70
2023/04/07 06:10:28;;;;;;;1.83;1.83;;;4.80;99.90;;;;;;4912594;29;20234;-68
2023/04/07 06:12:55;;;;;;;1.48;1.48;;;4.80;99.90;;;;;;4916185;29;20214;-71
2023/04/07 06:15:22;;;;;;;2.00;1.90;;;4.90;99.90;;;;;;4912053;29;20223;-69
2023/04/07 06:17:50;;;;;;;3.70;3.28;;;4.90;99.90;;;;;;4915364;29;20229;-71
2023/04/07 06:20:17;;;;;;;3.15;2.88;;;5.00;99.90;;;;;;4915547;29;20526;-70
2023/04/07 06:22:43;;;;;;;3.28;1.95;;;5.10;99.90;;;;;;4912409;29;20219;-71
2023/04/07 06:25:10;;;;;;;4.70;2.88;;;5.10;99.90;;;;;;4907228;29;20592;-70
2023/04/07 06:27:37;;;;;;;3.10;3.00;;;5.20;99.90;;;;;;4913150;29;20217;-71
2023/04/07 06:30:04;;;;;;;2.63;2.40;;;5.20;99.90;;;;;;4916531;29;20241;-71
2023/04/07 06:32:32;;;;;;;2.80;2.25;;;5.30;99.90;;;;;;4911805;29;20254;-70
2023/04/07 06:35:00;;;;;;;1.15;1.15;;;5.40;99.90;;;;;;4912446;29;20246;-70
2023/04/07 06:37:27;;;;;;;2.10;2.00;;;5.50;99.90;;;;;;4915769;29;20218;-70
2023/04/07 06:39:54;;;;;;;6.53;2.80;;;5.50;99.90;;;;;;4911692;29;20275;-69
2023/04/07 06:42:20;;;;;;;4.10;3.65;;;5.60;99.90;;;;;;4915620;29;20348;-68
2023/04/07 06:44:47;;;;;;;6.28;2.72;;;5.70;99.90;;;;;;4911681;29;20202;-70
2023/04/07 06:47:14;;;;;;;2.53;2.42;;;5.80;99.90;;;;;;4906142;29;20672;-70
2023/04/07 06:49:41;;;;;;;1.58;1.52;;;5.80;99.90;;;;;;4909140;29;20230;-69
2023/04/07 06:52:09;;;;;;;2.20;1.73;;;5.90;99.90;;;;;;4908126;29;20243;-70
2023/04/07 06:54:35;;;;;;;1.48;1.48;;;6.00;99.90;;;;;;4910549;29;20576;-70
2023/04/07 06:57:02;;;;;;;2.38;2.05;;;6.00;99.90;;;;;;4913152;29;20217;-70
2023/04/07 06:59:29;;;;;;;3.05;2.75;;;6.10;99.90;;;;;;4911219;29;20209;-69
2023/04/07 07:01:56;;;;;;;2.08;2.03;;;6.20;99.90;;;;;;4911293;29;21769;-69
2023/04/07 07:04:22;;;;;;;4.82;1.95;;;6.20;99.90;;;;;;4911264;29;20221;-71
2023/04/07 07:06:50;;;;;;;4.30;3.97;;;6.40;99.90;;;;;;4909392;29;20217;-70
2023/04/07 07:09:18;;;;;;;2.50;1.70;;;6.50;99.90;;;;;;4910574;29;20834;-70
2023/04/07 07:11:45;;;;;;;4.15;3.72;;;6.50;99.90;;;;;;4908286;29;20230;-71
2023/04/07 07:14:12;;;;;;;4.25;1.92;;;6.60;99.90;;;;;;4913960;29;20668;-71
2023/04/07 07:16:38;;;;;;;18.30;3.97;;;6.70;99.90;;;;;;4910151;29;20203;-71
2023/04/07 07:19:05;;;;;;;4.97;2.47;;;6.80;99.90;;;;;;4915190;29;20265;-71
2023/04/07 07:21:32;;;;;;;3.28;3.05;;;6.90;99.90;;;;;;4908522;29;20222;-71
2023/04/07 07:23:59;;;;;;;2.38;2.22;;;6.90;99.90;;;;;;4914266;29;20683;-71
2023/04/07 07:26:27;;;;;;;2.20;2.10;;;7.00;99.90;;;;;;4908245;29;20213;-71
2023/04/07 07:28:53;;;;;;;1.75;1.25;;;7.10;99.90;;;;;;4912533;29;20901;-71
2023/04/07 07:31:20;;;;;;;2.53;1.33;;;7.20;99.90;;;;;;4909577;29;20239;-71
2023/04/07 07:33:48;;;;;;;2.30;2.20;;;7.40;99.90;;;;;;4908146;29;20211;-71
2023/04/07 07:36:15;;;;;;;2.47;2.35;;;7.50;99.90;;;;;;4905891;29;20211;-68
2023/04/07 07:38:42;;;;;;;2.22;2.20;;;7.50;99.90;;;;;;4904566;29;20214;-71
2023/04/07 07:41:08;;;;;;;2.67;2.47;;;7.70;99.90;;;;;;4909522;29;20712;-71
2023/04/07 07:43:37;;;;;;;2.95;2.60;;;7.80;99.90;;;;;;4905751;29;20477;-70
2023/04/07 07:46:03;;;;;;;3.75;2.60;;;7.90;99.90;;;;;;4912110;29;20714;-71
2023/04/07 07:48:30;;;;;;;3.03;2.78;;;7.90;99.90;;;;;;4913926;29;20210;-70
2023/04/07 07:50:57;;;;;;;2.38;2.22;;;8.00;99.90;;;;;;4913555;29;20238;-71
2023/04/07 07:53:24;;;;;;;2.63;2.40;;;8.00;99.90;;;;;;4911775;29;20233;-70
2023/04/07 07:55:51;;;;;;;3.92;2.40;;;8.10;99.90;;;;;;4915916;29;20242;-70
2023/04/07 07:58:17;;;;;;;2.72;2.58;;;8.10;99.90;;;;;;4910228;29;20583;-70
2023/04/07 08:00:45;;;;;;;3.20;3.05;;;8.10;99.90;;;;;;4913122;29;20256;-69
2023/04/07 08:03:13;;;;;;;2.65;2.55;;;8.10;99.90;;;;;;4907611;29;20210;-71
2023/04/07 08:05:41;;;;;;;2.95;2.85;;;8.10;99.90;;;;;;4915375;29;20293;-70
2023/04/07 08:08:08;;;;;;;4.53;4.22;;;8.20;99.90;;;;;;4912524;29;20675;-70
2023/04/07 08:10:35;;;;;;;3.10;2.95;;;8.20;99.90;;;;;;4908819;29;20230;-69
2023/04/07 08:13:01;;;;;;;4.88;3.05;;;8.30;99.90;;;;;;4912581;29;20594;-70
2023/04/07 08:15:28;;;;;;;2.05;1.80;;;8.50;99.90;;;;;;4909096;29;20302;-71
2023/04/07 08:17:56;;;;;;;2.35;2.20;;;8.60;99.90;;;;;;4915149;29;20210;-70
2023/04/07 08:20:23;;;;;;;4.88;2.97;;;8.60;99.90;;;;;;4913228;29;20202;-70
2023/04/07 08:22:50;;;;;;;1.48;1.48;;;8.70;99.90;;;;;;4910875;29;20298;-71
2023/04/07 08:25:16;;;;;;;4.57;2.13;;;8.70;99.90;;;;;;4913091;29;20620;-71
2023/04/07 08:27:43;;;;;;;3.28;2.97;;;8.80;99.90;;;;;;4909837;29;20226;-71
2023/04/07 08:30:10;;;;;;;2.03;1.90;;;8.90;99.90;;;;;;4913735;29;20234;-71
2023/04/07 08:32:38;;;;;;;2.35;2.25;;;8.90;99.90;;;;;;4912571;29;20237;-70
2023/04/07 08:35:06;;;;;;;3.22;2.95;;;9.00;99.90;;;;;;4912371;29;21543;-70
2023/04/07 08:37:34;;;;;;;1.45;1.45;;;9.00;99.90;;;;;;4907264;29;20601;-69
2023/04/07 08:40:02;;;;;;;2.85;2.65;;;9.10;99.90;;;;;;4907109;29;20219;-72
2023/04/07 08:42:31;;;;;;;3.13;2.90;;;9.20;99.90;;;;;;4915759;29;20226;-71
2023/04/07 08:45:01;;;;;;;3.10;2.38;;;9.20;99.90;;;;;;4911876;29;20211;-69
2023/04/07 08:47:30;;;;;;;2.08;1.75;;;9.30;99.90;;;;;;4906378;29;20213;-72
2023/04/07 08:50:00;;;;;;;9.13;2.38;;;9.40;99.90;;;;;;4912090;29;20587;-71
2023/04/07 08:52:35;;;;;;;2.38;1.88;;;9.50;99.90;;;;;;4908460;29;20223;-71
2023/04/07 08:55:05;;;;;;;2.33;2.22;;;9.60;99.90;;;;;;4910121;29;20214;-70
2023/04/07 08:57:33;;;;;;;5.10;4.25;;;9.70;99.60;;;;;;4903058;29;20199;-70
2023/04/07 09:00:04;;;;;;;3.80;3.50;;;9.90;99.30;;;;;;4905056;29;20216;-70
2023/04/07 09:02:32;;;;;;;3.72;2.15;;;9.90;99.50;;;;;;4913962;29;20238;-68
2023/04/07 09:04:59;;;;;;;1.92;1.83;;;10.00;99.10;;;;;;4912558;29;20221;-71
2023/04/07 09:07:27;;;;;;;4.45;3.00;;;10.00;98.40;;;;;;4908965;29;20301;-71
2023/04/07 09:09:55;;;;;;;2.70;2.60;;;10.10;98.90;;;;;;4914179;29;20206;-71
2023/04/07 09:12:22;;;;;;;3.05;2.75;;;10.00;99.00;;;;;;4920326;29;20593;-69
2023/04/07 09:14:49;;;;;;;1.80;1.80;;;10.20;98.20;;;;;;4911184;29;20202;-70
2023/04/07 09:17:16;;;;;;;3.60;2.38;;;10.20;97.10;;;;;;4909845;29;20302;-70
2023/04/07 09:19:42;;;;;;;2.75;2.65;;;10.10;97.00;;;;;;4910582;29;20206;-67
2023/04/07 09:22:11;;;;;;;3.42;2.92;;;10.20;97.90;;;;;;4903265;29;20227;-69
2023/04/07 09:24:39;;;;;;;2.33;2.17;;;10.20;97.60;;;;;;4910500;29;20249;-70
2023/04/07 09:27:11;;;;;;;2.15;2.03;;;10.20;97.50;;;;;;4906941;29;20207;-69
2023/04/07 09:29:38;;;;;;;4.47;4.07;;;10.20;96.70;;;;;;4910273;29;20218;-70
2023/04/07 09:32:05;;;;;;;2.15;2.03;;;10.10;96.60;;;;;;4915408;29;20230;-70
2023/04/07 09:34:33;;;;;;;2.95;2.75;;;10.20;96.80;;;;;;4911500;29;20215;-70
2023/04/07 09:37:00;;;;;;;2.25;1.73;;;10.20;97.00;;;;;;4920136;29;20307;-70
2023/04/07 09:39:27;;;;;;;6.18;2.40;;;10.30;97.10;;;;;;4928927;29;20210;-68
2023/04/07 09:41:55;;;;;;;2.72;2.15;;;10.40;97.20;;;;;;4924653;29;20222;-70
2023/04/07 09:44:24;;;;;;;6.15;3.50;;;10.40;96.70;;;;;;4919069;29;20212;-67
2023/04/07 09:46:52;;;;;;;3.13;2.75;;;10.40;96.80;;;;;;4916815;29;20253;-71
2023/04/07 09:49:20;;;;;;;3.15;2.95;;;10.40;97.30;;;;;;4915742;29;20218;-71
2023/04/07 09:51:54;;;;;;;7.05;2.45;;;10.50;96.50;;;;;;4931061;29;20691;-71
2023/04/07 09:54:34;;;;;;;4.00;3.58;;;10.50;95.90;;;;;;4916470;29;20214;-71
2023/04/07 09:57:02;;;;;;;2.58;1.70;;;10.50;96.50;;;;;;4915717;29;20252;-71
2023/04/07 09:59:30;;;;;;;3.53;3.30;;;10.60;95.60;;;;;;4912799;29;20637;-70
2023/04/07 10:01:58;;;;;;;2.13;1.90;;;10.50;96.00;;;;;;4913021;29;20245;-71
2023/04/07 10:04:26;;;;;;;2.05;1.88;;;10.60;96.20;;;;;;4918241;29;20583;-71
2023/04/07 10:06:53;;;;;;;2.22;1.98;;;10.80;96.10;;;;;;4915436;29;20210;-70
2023/04/07 10:09:20;;;;;;;2.95;2.75;;;10.80;95.50;;;;;;4915756;29;20209;-70
2023/04/07 10:11:48;;;;;;;1.83;1.83;;;10.90;95.70;;;;;;4908841;29;20223;-70
2023/04/07 10:14:17;;;;;;;2.25;2.03;;;11.00;94.90;;;;;;4912198;29;20677;-70
2023/04/07 10:16:46;;;;;;;2.60;2.33;;;11.00;94.70;;;;;;4920492;29;20206;-70
2023/04/07 10:19:14;;;;;;;3.40;3.13;;;10.90;94.70;;;;;;4935026;23;20234;-68
2023/04/07 10:21:42;;;;;;;1.92;1.83;;;10.90;94.70;;;;;;4915768;29;20211;-68
2023/04/07 10:24:19;;;;;;;3.45;2.60;;;10.90;94.70;;;;;;4918258;29;20206;-69
2023/04/07 10:26:50;;;;;;;2.58;2.35;;;10.90;94.90;;;;;;4919591;29;20667;-69
2023/04/07 10:29:20;;;;;;;2.15;1.30;;;11.00;94.30;;;;;;4920311;29;20230;-69
2023/04/07 10:31:47;;;;;;;4.72;2.70;;;11.10;94.60;;;;;;4918180;29;20699;-69
2023/04/07 10:34:15;;;;;;;4.32;4.03;;;11.10;93.70;;;;;;4918903;29;20214;-70
2023/04/07 10:37:09;;;;;;;2.83;2.63;;;11.00;93.70;;;;;;4919102;29;20207;-69
2023/04/07 10:39:37;;;;;;;5.05;2.83;;;11.00;94.10;;;;;;4918229;29;20310;-69
2023/04/07 10:42:03;;;;;;;2.42;2.38;;;11.00;94.10;;;;;;4914506;29;20206;-67
2023/04/07 10:44:49;;;;;;;2.05;1.95;;;11.00;94.80;;;;;;4913725;29;20210;-68
2023/04/07 10:47:16;;;;;;;3.28;2.97;;;11.10;94.90;;;;;;4913677;29;20241;-68
2023/04/07 10:50:15;;;;;;;3.28;3.05;;;11.00;94.30;;;;;;4916298;29;20676;-69
2023/04/07 10:52:42;;;;;;;2.15;1.98;;;11.00;94.60;;;;;;4909522;29;20649;-68
2023/04/07 10:55:35;;;;;;;5.85;2.38;;;11.10;95.10;;;;;;4915403;29;20246;-69
2023/04/07 10:58:15;;;;;;;2.10;2.00;;;11.00;94.80;;;;;;4915723;29;20270;-68
2023/04/07 11:01:03;;;;;;;1.75;1.75;;;11.00;94.70;;;;;;4913186;29;20230;-68
2023/04/07 11:03:32;;;;;;;3.55;3.30;;;11.20;94.60;;;;;;4911005;29;20208;-68
2023/04/07 11:06:03;;;;;;;3.83;3.47;;;11.30;94.50;;;;;;4906550;29;20211;-69
2023/04/07 11:08:34;;;;;;;1.92;1.83;;;11.20;94.20;;;;;;4910339;29;20242;-68
2023/04/07 11:11:01;;;;;;;2.75;2.65;;;11.20;94.40;;;;;;4916332;29;20234;-68
2023/04/07 11:13:28;;;;;;;3.40;2.72;;;11.20;93.90;;;;;;4914651;29;20206;-68
2023/04/07 11:15:56;;;;;;;3.08;2.55;;;11.20;94.20;;;;;;4916055;29;20206;-69
2023/04/07 11:18:23;;;;;;;2.70;2.50;;;11.10;94.10;;;;;;4915296;29;20229;-68
2023/04/07 11:20:52;;;;;;;2.03;1.98;;;11.10;93.50;;;;;;4913840;29;20257;-68
2023/04/07 11:23:21;;;;;;;3.60;3.30;;;11.20;94.00;;;;;;4913315;29;20270;-68
2023/04/07 11:25:49;;;;;;;2.00;1.92;;;11.20;93.40;;;;;;4913843;29;20270;-69
2023/04/07 11:28:16;;;;;;;3.55;3.35;;;11.30;93.50;;;;;;4912536;29;20221;-68
2023/04/07 11:30:51;;;;;;;2.05;1.65;;;11.40;93.00;;;;;;4914070;29;20230;-67
2023/04/07 11:33:21;;;;;;;2.28;2.17;;;11.40;93.10;;;;;;4913346;29;20232;-69
2023/04/07 11:35:54;;;;;;;2.55;2.35;;;11.40;93.00;;;;;;4911671;29;20788;-69
2023/04/07 11:38:21;;;;;;;2.28;1.67;;;11.40;92.90;;;;;;4914923;29;20293;-69
2023/04/07 11:40:48;;;;;;;2.10;1.98;;;11.30;92.50;;;;;;4911514;29;20237;-69
2023/04/07 11:43:19;;;;;;;3.53;2.65;;;11.40;92.10;;;;;;4915946;29;20206;-69
2023/04/07 11:45:46;;;;;;;2.53;2.17;;;11.40;92.30;;;;;;4916466;29;20210;-69
2023/04/07 11:48:34;;;;;;;3.28;1.90;;;11.40;91.90;;;;;;4916254;29;20250;-69
2023/04/07 11:51:02;;;;;;;2.00;1.90;;;11.50;92.60;;;;;;4914728;29;20206;-68
2023/04/07 11:53:30;;;;;;;3.05;2.85;;;11.50;92.30;;;;;;4914799;29;20207;-68
2023/04/07 11:56:02;;;;;;;2.60;2.40;;;11.50;91.80;;;;;;4915806;29;20560;-68
2023/04/07 11:58:32;;;;;;;2.38;2.30;;;11.40;91.50;;;;;;4913840;29;20298;-69
2023/04/07 12:01:03;;;;;;;1.25;1.15;;;11.40;91.30;;;;;;4915317;29;20253;-68
2023/04/07 12:03:31;;;;;;;2.28;2.22;;;11.40;91.50;;;;;;4916147;29;20696;-69
2023/04/07 12:05:59;;;;;;;2.95;2.60;;;11.50;90.50;;;;;;4915752;29;20215;-68
2023/04/07 12:08:38;;;;;;;1.10;1.10;;;11.50;89.20;;;;;;4914521;29;20217;-68
2023/04/07 12:11:05;;;;;;;2.35;2.25;;;11.50;90.10;;;;;;4915446;29;20815;-68
2023/04/07 12:13:32;;;;;;;3.88;2.45;;;11.50;90.20;;;;;;4914913;29;20226;-68
2023/04/07 12:15:59;;;;;;;2.05;1.95;;;11.50;90.60;;;;;;4915557;29;20225;-68
2023/04/07 12:18:27;;;;;;;2.85;1.83;;;11.60;90.20;;;;;;4912650;29;20285;-69
2023/04/07 12:20:54;;;;;;;2.33;2.15;;;11.60;90.30;;;;;;4914820;29;20241;-69
2023/04/07 12:23:22;;;;;;;1.17;1.17;;;11.70;91.10;;;;;;4914948;29;20241;-68
2023/04/07 12:25:49;;;;;;;2.40;1.15;;;11.80;90.20;;;;;;4915572;29;20225;-68
2023/04/07 12:28:16;;;;;;;1.17;1.02;;;11.80;88.00;;;;;;4914847;29;20245;-70
2023/04/07 12:30:43;;;;;;;2.58;2.42;;;11.90;89.50;;;;;;4915484;29;20248;-70
2023/04/07 12:33:10;;;;;;;1.88;1.88;;;11.90;88.40;;;;;;4916096;29;20250;-70
2023/04/07 12:35:39;;;;;;;1.30;1.30;;;11.90;88.00;;;;;;4914891;29;20218;-69
2023/04/07 12:38:07;;;;;;;4.35;2.40;;;11.80;88.60;;;;;;4914511;29;20218;-69
2023/04/07 12:40:36;;;;;;;1.38;1.27;;;11.80;88.20;;;;;;4901254;29;20241;-68
2023/04/07 12:43:04;;;;;;;1.50;1.50;;;11.80;86.80;;;;;;4916437;29;20214;-70
2023/04/07 12:45:31;;;;;;;1.95;1.85;;;11.70;85.60;;;;;;4916476;29;20216;-68
2023/04/07 12:47:58;;;;;;;2.78;2.47;;;11.70;86.30;;;;;;4916174;29;20214;-70
2023/04/07 12:50:25;;;;;;;1.50;1.40;;;11.50;85.20;;;;;;4917482;29;20250;-69
2023/04/07 12:52:53;;;;;;;2.25;1.88;;;11.50;86.90;;;;;;4916134;29;20268;-69
2023/04/07 12:55:20;;;;;;;1.85;1.85;;;11.50;87.50;;;;;;4915115;29;20215;-68
2023/04/07 12:57:49;;;;;;;2.33;2.10;;;11.50;88.90;;;;;;4914084;29;20214;-69
2023/04/07 13:00:16;;;;;;;2.30;2.20;;;11.50;89.90;;;;;;4915152;29;20229;-70
2023/04/07 13:02:43;;;;;;;2.92;2.72;;;11.50;89.80;;;;;;4915164;29;20222;-69
2023/04/07 13:05:10;;;;;;;1.80;1.70;;;11.50;90.00;;;;;;4913728;29;20211;-69
2023/04/07 13:07:37;;;;;;;2.38;1.60;;;11.50;89.90;;;;;;4913140;29;20690;-67
2023/04/07 13:10:06;;;;;;;1.38;1.35;;;11.60;89.80;;;;;;4914811;29;20223;-69
2023/04/07 13:12:33;;;;;;;1.55;1.55;;;11.60;89.50;;;;;;4914948;29;20230;-69
2023/04/07 13:15:01;;;;;;;2.15;2.05;;;11.50;89.80;;;;;;4913930;29;20214;-68
2023/04/07 13:17:28;;;;;;;2.30;1.55;;;11.50;89.60;;;;;;4914051;29;20219;-68
2023/04/07 13:19:55;;;;;;;1.67;0.65;;;11.40;88.60;;;;;;4914120;29;20238;-68
2023/04/07 13:22:22;;;;;;;5.55;1.88;;;11.50;88.70;;;;;;4915268;29;20586;-68
2023/04/07 13:24:49;;;;;;;2.17;2.03;;;11.50;87.40;;;;;;4913777;29;20281;-69
2023/04/07 13:27:16;;;;;;;2.38;2.25;;;11.50;87.90;;;;;;4913729;29;20225;-68
2023/04/07 13:29:42;;;;;;;1.70;1.60;;;11.60;89.50;;;;;;4911496;29;20234;-69
2023/04/07 13:32:13;;;;;;;2.78;2.58;;;11.60;89.30;;;;;;4906324;29;20563;-69
2023/04/07 13:34:40;;;;;;;1.95;1.95;;;11.70;90.30;;;;;;4912173;29;20221;-68
2023/04/07 13:37:07;;;;;;;2.17;2.08;;;11.90;99.90;;;;;;4911988;29;20860;-68
2023/04/07 13:39:34;;;;;;;1.92;1.88;;;11.80;89.20;;;;;;4909395;29;20230;-68
2023/04/07 13:42:00;;;;;;;2.20;2.00;;;11.90;90.40;;;;;;4910964;29;20202;-68
2023/04/07 13:44:28;;;;;;;1.30;1.30;;;12.00;88.20;;;;;;4914822;29;20536;-70
2023/04/07 13:46:56;;;;;;;4.43;1.67;;;12.10;89.50;;;;;;4915616;29;20217;-70
2023/04/07 13:49:24;;;;;;;1.20;1.20;;;12.10;89.70;;;;;;4914825;29;20305;-68
2023/04/07 13:51:51;;;;;;;1.67;1.57;;;12.30;88.40;;;;;;4914888;29;20501;-67
2023/04/07 13:54:18;;;;;;;0.70;0.70;;;12.30;86.20;;;;;;4915457;29;20938;-69
2023/04/07 13:56:46;;;;;;;1.33;1.33;;;12.30;87.10;;;;;;4915605;29;20487;-68
2023/04/07 13:59:13;;;;;;;1.30;1.30;;;12.30;87.10;;;;;;4910045;29;21069;-68
2023/04/07 14:01:40;;;;;;;2.30;0.73;;;12.20;88.50;;;;;;4915104;29;20512;-68
2023/04/07 14:04:07;;;;;;;0.67;0.67;;;12.20;88.10;;;;;;4912419;29;20994;-69
2023/04/07 14:06:36;;;;;;;1.13;1.07;;;12.00;87.40;;;;;;4916234;29;20530;-68
2023/04/07 14:09:05;;;;;;;1.47;1.17;;;12.00;89.90;;;;;;4915242;29;20498;-68
2023/04/07 14:11:33;;;;;;;0.80;0.80;;;12.20;90.70;;;;;;4907214;29;20530;-68
2023/04/07 14:14:00;;;;;;;0.63;0.63;;;12.30;91.20;;;;;;4908662;29;20495;-67
2023/04/07 14:16:27;;;;;;;0.80;0.80;;;12.30;91.40;;;;;;4907589;29;20569;-69
2023/04/07 14:18:54;;;;;;;1.27;1.27;;;12.30;91.90;;;;;;4916867;29;20466;-68
2023/04/07 14:21:21;;;;;;;0.60;0.60;;;12.30;92.00;;;;;;4916686;29;20482;-68
2023/04/07 14:23:50;;;;;;;0.97;0.67;;;12.20;92.20;;;;;;4918705;29;20960;-69
2023/04/07 14:26:16;;;;;;;1.33;1.30;;;12.20;93.80;;;;;;4913037;29;20474;-68
2023/04/07 14:28:43;;;;;;;1.00;1.00;;;12.20;94.90;;;;;;4918488;29;20505;-69
2023/04/07 14:31:13;;;;;;;0.50;0.50;;;12.20;95.70;;;;;;4918387;29;20474;-68
2023/04/07 14:33:40;;;;;;;1.53;1.50;;;12.00;96.30;;;;;;4917832;29;20492;-69
2023/04/07 14:36:07;;;;;;;0.83;0.83;;;11.80;96.80;;;;;;4916122;29;20466;-67
2023/04/07 14:38:34;;;;;;;0.70;0.70;;;11.70;96.90;;;;;;4916489;29;20458;-69
2023/04/07 14:41:02;;;;;;;0.93;0.70;;;11.60;97.20;;;;;;4913052;29;20603;-69
2023/04/07 14:43:29;;;;;;;0.63;0.63;;;11.30;97.20;;;;;;4916239;29;20647;-68
2023/04/07 14:45:58;;;;;;;1.52;1.42;;;11.20;97.80;;;;;;4909656;29;20477;-70
2023/04/07 14:48:25;;;;;;;1.00;1.00;;;11.10;98.90;;;;;;4915941;29;20233;-69
2023/04/07 14:50:55;;;;;;;2.00;1.50;;;11.10;99.50;;;;;;4909195;29;20332;-69
2023/04/07 14:53:22;;;;;;;1.42;1.42;;;11.00;99.90;;;;;;4916745;29;20570;-69
2023/04/07 14:55:49;;;;;;;1.88;1.88;;;11.00;99.90;;;;;;4918238;29;20691;-69
2023/04/07 14:58:17;;;;;;;0.93;0.93;;;11.00;99.90;;;;;;4917370;29;20219;-68
2023/04/07 15:00:44;;;;;;;0.63;0.63;;;10.90;99.90;;;;;;4917489;29;20229;-69
2023/04/07 15:03:11;;;;;;;1.10;1.05;;;10.90;99.90;;;;;;4916047;29;20273;-68
2023/04/07 15:05:37;;;;;;;2.13;2.03;;;10.80;99.90;;;;;;4916420;29;20232;-68
2023/04/07 15:08:05;;;;;;;2.03;1.92;;;10.80;99.90;;;;;;4917678;29;20217;-68
2023/04/07 15:10:34;;;;;;;0.70;0.70;;;10.70;99.90;;;;;;4910999;29;20679;-68
2023/04/07 15:13:01;;;;;;;1.00;0.98;;;10.70;99.90;;;;;;4917373;29;20226;-68
2023/04/07 15:15:29;;;;;;;0.75;0.75;;;10.70;99.50;;;;;;4916047;29;20210;-69
2023/04/07 15:17:56;;;;;;;1.02;1.00;;;10.70;99.90;;;;;;4917668;29;20672;-68
2023/04/07 15:20:23;;;;;;;0.45;0.45;;;10.80;99.90;;;;;;4918162;29;20242;-70
2023/04/07 15:22:50;;;;;;;0.77;0.77;;;10.60;99.90;;;;;;4919394;29;20991;-68
2023/04/07 15:25:17;;;;;;;0.88;0.88;;;10.60;99.90;;;;;;4916110;29;20210;-69
2023/04/07 15:27:43;;;;;;;0.70;0.70;;;10.40;99.90;;;;;;4916628;29;20214;-68
2023/04/07 15:30:11;;;;;;;1.48;1.38;;;10.40;99.90;;;;;;4917858;29;20230;-70
2023/04/07 15:32:39;;;;;;;0.80;0.77;;;10.40;99.90;;;;;;4918877;29;20242;-69
2023/04/07 15:35:06;;;;;;;1.17;1.15;;;10.20;99.90;;;;;;4916752;29;20221;-68
2023/04/07 15:37:33;;;;;;;0.88;0.82;;;10.20;99.90;;;;;;4917151;29;20210;-69
2023/04/07 15:40:00;;;;;;;1.13;1.10;;;10.20;99.90;;;;;;4910006;29;20227;-68
2023/04/07 15:42:27;;;;;;;0.70;0.68;;;10.20;99.90;;;;;;4916869;29;20210;-70
2023/04/07 15:44:53;;;;;;;0.52;0.45;;;10.20;99.90;;;;;;4916817;29;20221;-70
2023/04/07 15:47:20;;;;;;;3.00;2.67;;;10.10;99.90;;;;;;4924209;29;20309;-69
2023/04/07 15:49:48;;;;;;;0.90;0.90;;;10.00;99.90;;;;;;4916576;29;20599;-69
2023/04/07 15:52:15;;;;;;;1.67;1.58;;;9.90;99.90;;;;;;4917905;29;20678;-69
2023/04/07 15:54:42;;;;;;;0.95;0.95;;;9.90;99.90;;;;;;4914846;29;20643;-68
2023/04/07 15:57:08;;;;;;;9.27;1.70;;;9.80;99.90;;;;;;4917174;29;20219;-68
2023/04/07 15:59:35;;;;;;;1.38;1.27;;;9.80;99.90;;;;;;4914893;29;20718;-72
2023/04/07 16:02:02;;;;;;;0.50;0.50;;;9.70;99.90;;;;;;4916148;29;20226;-69
2023/04/07 16:04:29;;;;;;;1.17;1.17;;;9.70;99.90;;;;;;4914261;29;20266;-69
2023/04/07 16:06:57;;;;;;;1.85;1.73;;;9.60;99.90;;;;;;4908579;29;20254;-69
2023/04/07 16:09:27;;;;;;;1.27;1.27;;;9.50;99.90;;;;;;4912910;29;20318;-69
2023/04/07 16:11:54;;;;;;;1.15;1.15;;;9.50;99.90;;;;;;4909155;29;20832;-69
2023/04/07 16:14:21;;;;;;;1.95;1.80;;;9.40;99.90;;;;;;4914194;29;20234;-68
2023/04/07 16:16:50;;;;;;;1.42;1.33;;;9.30;99.90;;;;;;4915802;29;20214;-69
2023/04/07 16:19:17;;;;;;;1.40;1.30;;;9.30;99.90;;;;;;4913811;29;20234;-69
2023/04/07 16:21:43;;;;;;;0.75;0.75;;;9.30;99.90;;;;;;4914297;29;20210;-69
2023/04/07 16:24:12;;;;;;;1.98;1.55;;;9.30;99.90;;;;;;4913721;29;20683;-68
2023/04/07 16:26:41;;;;;;;1.73;1.58;;;9.10;99.90;;;;;;4914242;29;20617;-68
2023/04/07 16:29:07;;;;;;;1.13;1.13;;;9.10;99.90;;;;;;4914668;29;20361;-68
2023/04/07 16:31:34;;;;;;;2.58;0.60;;;9.00;99.90;;;;;;4908863;29;20202;-68
2023/04/07 16:34:01;;;;;;;1.67;1.67;;;9.00;99.90;;;;;;4913066;29;20226;-67
2023/04/07 16:36:28;;;;;;;1.83;1.73;;;9.00;99.90;;;;;;4910178;29;20286;-68
2023/04/07 16:38:56;;;;;;;1.50;1.40;;;9.00;99.90;;;;;;4914430;29;20211;-68
2023/04/07 16:41:25;;;;;;;3.83;1.45;;;9.00;99.90;;;;;;4907563;29;20663;-69
2023/04/07 16:43:51;;;;;;;1.67;1.25;;;8.90;99.90;;;;;;4915804;29;20266;-68
2023/04/07 16:46:18;;;;;;;1.20;1.20;;;8.90;99.90;;;;;;4915564;29;20266;-68
2023/04/07 16:48:46;;;;;;;1.60;1.30;;;8.80;99.90;;;;;;4912148;29;20298;-68
2023/04/07 16:51:16;;;;;;;1.75;1.65;;;8.70;99.90;;;;;;4915057;29;20599;-68
2023/04/07 16:53:43;;;;;;;1.20;1.20;;;8.60;99.90;;;;;;4913452;29;20253;-70
2023/04/07 16:56:15;;;;;;;1.13;1.13;;;8.50;99.90;;;;;;4913913;29;20820;-68